Terminal Aerodrome Forecast
Issued by NWS El Paso, TX

Home | Current Version | Previous Version | Text Only | Print | Product List | Glossary On
Versions: 1 2 3 4 5 6 7 8 9 10 11 12 13 14
000
FTUS44 KEPZ 281139
TAFELP
TAF
KELP 281139Z 2812/2912 23008KT P6SM FEW120 SCT250
     FM281600 26020G30KT P6SM FEW100 BKN250
     FM281900 26028G40KT P6SM FEW100 BKN250
      TEMPO 2820/2824 26032G45KT 5SM BLDU=

USA.gov is the U.S. government's official web portal to all federal, state and local government web resources and services.